Vantage, Washington
Current Conditions -  °F | °C
As of 9:53 PM on Friday 19 Dec 2014 (Local Time) from KELN Reporting Station
Clear Clear  
Wind Chill: 36°   Ceiling: Unl
Heat Index: 36°   Visibility: 10mi
Dew Point: 30°   Wind: 3mph
Humidity: 79%   Direction: 290°WNW
Pressure: 29.93"   Gusts: NA
Location:  46.95°N, 119.99°W
Report Text: KELN 200553Z AUTO 29003KT 10SM CLR 02/M01 A2993 RMK AO2 SLP149 T00221011 10056 20006 58012
Loading
Personal Weather Stations






























Interactive Weather Map New forecast layout! Learn more

10-Day Weather Forecast

Advertisements
Track Severe Weather on mobile